Time;durP1;ratioP1;P1;durP2;ratioP2;P2;SDS_P1;SDS_P2;PMS_P1;PMS_P2;Temp;Humidity;BMP_temperature;BMP_pressure;BME280_temperature;BME280_humidity;BME280_pressure;Samples;Min_cycle;Max_cycle;Signal;HPM_P1;HPM_P2
2021/05/29 00:02:28;;;;;;;6.03;4.08;;;;;;;16.25;100.00;98551.47;1660883;84;20999;-68
2021/05/29 00:05:11;;;;;;;6.42;3.83;;;;;;;16.28;100.00;98555.34;1647370;84;21586;-67
2021/05/29 00:07:52;;;;;;;4.70;4.30;;;;;;;16.30;100.00;98554.82;1728179;82;21068;-67
2021/05/29 00:10:26;;;;;;;5.85;4.08;;;;;;;16.32;100.00;98548.97;1702649;84;21562;-65
2021/05/29 00:13:06;;;;;;;5.20;3.77;;;;;;;16.34;100.00;98548.91;1726273;82;21545;-66
2021/05/29 00:15:43;;;;;;;8.00;4.50;;;;;;;16.34;100.00;98552.44;1702641;84;21529;-65
2021/05/29 00:18:14;;;;;;;6.15;4.47;;;;;;;16.35;100.00;98555.51;1726932;82;21419;-65
2021/05/29 00:20:49;;;;;;;7.17;4.30;;;;;;;16.36;100.00;98553.25;1728512;83;21047;-67
2021/05/29 00:23:27;;;;;;;4.40;3.80;;;;;;;16.38;100.00;98553.19;1724786;82;21494;-67
2021/05/29 00:25:59;;;;;;;6.65;4.62;;;;;;;16.43;100.00;98559.67;1728573;82;20985;-67
2021/05/29 00:28:35;;;;;;;6.83;4.28;;;;;;;16.42;100.00;98559.27;1728449;82;21558;-67
2021/05/29 00:31:11;;;;;;;5.42;4.55;;;;;;;16.41;100.00;98551.73;1751320;81;21027;-67
2021/05/29 00:33:46;;;;;;;5.55;4.50;;;;;;;16.40;100.00;98550.47;1756627;81;21577;-67
2021/05/29 00:36:21;;;;;;;6.22;4.30;;;;;;;16.40;100.00;98553.13;1758280;81;21518;-67
2021/05/29 00:39:03;;;;;;;5.35;4.17;;;;;;;16.41;100.00;98556.20;1758480;81;21534;-68
2021/05/29 00:41:43;;;;;;;6.37;4.78;;;;;;;16.40;100.00;98551.80;1756855;81;21631;-68
2021/05/29 00:44:25;;;;;;;7.55;4.25;;;;;;;16.38;100.00;98551.40;1757803;81;20908;-67
2021/05/29 00:47:00;;;;;;;6.72;4.12;;;;;;;16.40;100.00;98546.02;1757424;81;21494;-67
2021/05/29 00:49:32;;;;;;;5.70;3.45;;;;;;;16.40;100.00;98543.35;1758969;81;21496;-67
2021/05/29 00:52:09;;;;;;;9.15;4.17;;;;;;;16.38;100.00;98546.07;1759378;81;21463;-65
2021/05/29 00:54:46;;;;;;;6.75;4.30;;;;;;;16.36;100.00;98545.27;1758959;81;20988;-67
2021/05/29 00:57:25;;;;;;;8.08;4.30;;;;;;;16.37;100.00;98551.45;1759472;81;20932;-66
2021/05/29 01:00:06;;;;;;;4.42;3.85;;;;;;;16.37;100.00;98546.13;1757215;81;21530;-67
2021/05/29 01:02:52;;;;;;;5.67;3.40;;;;;;;16.38;100.00;98543.88;1758278;81;21497;-65
2021/05/29 01:05:32;;;;;;;5.15;3.70;;;;;;;16.40;100.00;98537.16;1759258;81;20920;-67
2021/05/29 01:10:59;;;;;;;5.33;3.67;;;;;;;16.40;100.00;98541.16;1610246;89;21076;-66
2021/05/29 01:13:34;;;;;;;5.15;3.33;;;;;;;16.36;100.00;98541.27;1680395;84;21096;-66
2021/05/29 01:19:23;;;;;;;9.48;3.90;;;;;;;16.34;100.00;98533.81;1758079;81;21550;-65
2021/05/29 01:21:57;;;;;;;4.95;3.70;;;;;;;16.32;100.00;98535.67;1704136;81;21697;-65
2021/05/29 01:24:29;;;;;;;6.40;3.30;;;;;;;16.33;100.00;98532.55;1697429;83;21407;-69
2021/05/29 01:26:55;;;;;;;4.22;3.00;;;;;;;16.34;100.00;98531.16;1707419;84;21513;-69
2021/05/29 01:29:24;;;;;;;6.58;3.05;;;;;;;16.35;100.00;98529.36;1707853;84;21462;-68
2021/05/29 01:32:02;;;;;;;5.47;3.27;;;;;;;16.35;100.00;98529.36;1723801;82;21475;-67
2021/05/29 01:34:35;;;;;;;4.55;3.20;;;;;;;16.32;100.00;98534.34;1722627;83;21008;-66
2021/05/29 01:37:06;;;;;;;5.12;2.83;;;;;;;16.31;100.00;98528.61;1724216;82;21394;-69
2021/05/29 01:39:37;;;;;;;5.37;3.08;;;;;;;16.32;100.00;98531.67;1724392;83;21094;-68
2021/05/29 01:42:11;;;;;;;5.42;2.80;;;;;;;16.32;100.00;98529.48;1723192;83;21462;-65
2021/05/29 01:45:10;;;;;;;5.10;2.80;;;;;;;16.32;100.00;98524.16;1654394;83;21672;-66
2021/05/29 01:47:35;;;;;;;4.67;3.02;;;;;;;16.30;100.00;98530.00;1709663;83;21490;-65
2021/05/29 01:50:12;;;;;;;3.58;2.50;;;;;;;16.31;100.00;98526.41;1714101;83;21499;-66
2021/05/29 01:53:02;;;;;;;3.45;2.60;;;;;;;16.28;100.00;98523.41;1722914;83;21560;-66
2021/05/29 01:55:47;;;;;;;6.97;2.85;;;;;;;16.27;100.00;98526.12;1723343;82;21998;-65
2021/05/29 01:58:26;;;;;;;4.53;2.80;;;;;;;16.27;100.00;98522.14;1721535;83;21493;-65
2021/05/29 02:01:00;;;;;;;3.00;2.30;;;;;;;16.26;100.00;98517.74;1723595;82;21510;-67
2021/05/29 02:03:48;;;;;;;4.15;2.30;;;;;;;16.21;100.00;98517.92;1722878;83;21494;-67
2021/05/29 02:06:22;;;;;;;4.12;2.10;;;;;;;16.17;100.00;98516.30;1700866;83;21321;-66
2021/05/29 02:09:03;;;;;;;4.25;2.20;;;;;;;16.17;100.00;98514.98;1723593;83;20944;-65
2021/05/29 02:11:36;;;;;;;2.72;1.98;;;;;;;16.17;100.00;98515.44;1723313;83;20981;-67
2021/05/29 02:14:30;;;;;;;4.62;2.00;;;;;;;16.11;100.00;98511.22;1723553;83;20945;-67
2021/05/29 02:17:03;;;;;;;1.98;1.85;;;;;;;16.08;100.00;98509.98;1712683;83;21550;-67
2021/05/29 02:19:37;;;;;;;3.12;1.90;;;;;;;16.09;100.00;98509.55;1723571;83;21510;-66
2021/05/29 02:22:15;;;;;;;2.42;1.77;;;;;;;16.05;100.00;98502.98;1723396;82;21008;-67
2021/05/29 02:24:59;;;;;;;2.52;2.00;;;;;;;16.03;100.00;98499.97;1723403;83;21531;-66
2021/05/29 02:27:30;;;;;;;2.47;1.75;;;;;;;15.99;100.00;98501.02;1625490;87;21565;-67
2021/05/29 02:30:26;;;;;;;2.08;1.82;;;;;;;15.95;100.00;98499.41;1722511;82;21637;-67
2021/05/29 02:33:06;;;;;;;2.05;1.85;;;;;;;15.92;100.00;98503.05;1724839;82;21608;-67
2021/05/29 02:35:33;;;;;;;5.22;2.37;;;;;;;15.90;100.00;98501.38;1702750;82;20948;-67
2021/05/29 02:38:17;;;;;;;3.15;2.17;;;;;;;15.88;100.00;98501.43;1724286;82;21522;-67
2021/05/29 02:43:56;;;;;;;2.15;1.70;;;;;;;15.90;100.00;98512.88;1644759;82;21073;-64
2021/05/29 02:46:30;;;;;;;3.77;1.90;;;;;;;15.91;100.00;98512.41;1714463;82;22088;-65
2021/05/29 02:51:59;;;;;;;4.60;2.30;;;;;;;15.89;100.00;98511.61;1721235;82;20972;-66
2021/05/29 02:54:33;;;;;;;3.70;1.80;;;;;;;15.90;100.00;98516.87;1737593;82;21474;-67
2021/05/29 02:57:09;;;;;;;5.78;2.12;;;;;;;15.93;100.00;98515.88;1737659;82;21634;-66
2021/05/29 02:59:42;;;;;;;3.25;2.33;;;;;;;15.93;100.00;98517.22;1707685;82;21011;-67
2021/05/29 03:02:15;;;;;;;;;;;;;;;15.94;100.00;98520.28;1739847;82;20948;-67
2021/05/29 03:04:59;;;;;;;;;;;;;;;;;;;;;
2021/05/29 03:07:24;;;;;;;6.42;3.77;;;;;;;15.84;100.00;98526.41;1732379;82;21031;-67
2021/05/29 03:10:01;;;;;;;13.60;4.20;;;;;;;15.79;100.00;98524.38;1736218;82;20993;-66
2021/05/29 03:12:29;;;;;;;6.53;3.98;;;;;;;15.74;100.00;98529.87;1734680;82;21582;-67
2021/05/29 03:15:04;;;;;;;8.63;4.00;;;;;;;15.70;100.00;98528.70;1736337;82;21470;-66
2021/05/29 03:17:43;;;;;;;5.87;4.10;;;;;;;15.65;100.00;98527.55;1737204;82;20888;-68
